Terminal Aerodrome Forecast
Issued by NWS

Home | Current Version | Previous Version | Text Only | Print | Product List | Glossary On
Versions: 1 2 3 4 5 6 7 8 9 10 11 12
000
FTUS41 KBTV 241720
TAFMSS
TAF
KMSS 241720Z 2418/2518 23015G25KT P6SM FEW140 SCT200
     FM250200 24010KT P6SM FEW120 SCT250
     FM250600 23005KT P6SM SCT080 BKN150
     FM251000 23007KT P6SM VCSH SCT035 BKN050
     FM251400 22007KT P6SM -SHRA SCT020 BKN030 OVC035=

USA.gov is the U.S. government's official web portal to all federal, state and local government web resources and services.